createdAt,value
2023-04-04T00:01:32.223Z,98295.38
2023-04-04T00:03:59.999Z,98294.06
2023-04-04T00:06:28.094Z,98295.97
2023-04-04T00:08:55.616Z,98295.66
2023-04-04T00:11:23.191Z,98297.09
2023-04-04T00:13:50.709Z,98285.16
2023-04-04T00:16:18.227Z,98279.56
2023-04-04T00:18:45.802Z,98269.56
2023-04-04T00:21:13.344Z,98257.22
2023-04-04T00:23:40.894Z,98249.19
2023-04-04T00:26:08.450Z,98256.72
2023-04-04T00:28:36.907Z,98250.97
2023-04-04T00:31:04.492Z,98258.50
2023-04-04T00:33:32.523Z,98253.00
2023-04-04T00:36:00.020Z,98254.44
2023-04-04T00:38:29.692Z,98256.03
2023-04-04T00:40:58.253Z,98254.00
2023-04-04T00:43:27.228Z,98251.09
2023-04-04T00:45:54.808Z,98239.47
2023-04-04T00:48:24.444Z,98232.53
2023-04-04T00:50:52.692Z,98232.84
2023-04-04T00:53:20.239Z,98239.13
2023-04-04T00:55:47.741Z,98228.13
2023-04-04T00:58:15.552Z,98235.81
2023-04-04T01:00:43.155Z,98230.31
2023-04-04T01:03:12.873Z,98224.25
2023-04-04T01:05:41.957Z,98225.59
2023-04-04T01:08:09.559Z,98218.56
2023-04-04T01:10:37.955Z,98227.19
2023-04-04T01:13:07.278Z,98218.72
2023-04-04T01:15:34.729Z,98230.25
2023-04-04T01:18:05.886Z,98226.75
2023-04-04T01:20:40.608Z,98231.19
2023-04-04T01:23:10.579Z,98223.03
2023-04-04T01:25:38.873Z,98217.63
2023-04-04T01:28:11.054Z,98223.41
2023-04-04T01:30:42.420Z,98226.88
2023-04-04T01:33:21.259Z,98226.69
2023-04-04T01:36:02.726Z,98221.59
2023-04-04T01:39:03.767Z,98222.19
2023-04-04T01:41:35.417Z,98218.47
2023-04-04T01:44:04.705Z,98233.31
2023-04-04T01:46:33.089Z,98218.34
2023-04-04T01:49:00.715Z,98217.72
2023-04-04T01:51:32.699Z,98220.56
2023-04-04T01:54:00.565Z,98214.97
2023-04-04T01:56:28.551Z,98207.28
2023-04-04T01:58:56.292Z,98215.59
2023-04-04T02:01:24.151Z,98222.78
2023-04-04T02:03:52.903Z,98214.06
2023-04-04T02:06:20.496Z,98202.66
2023-04-04T02:08:48.228Z,98196.31
2023-04-04T02:11:16.246Z,98194.69
2023-04-04T02:13:44.515Z,98190.22
2023-04-04T02:16:15.879Z,98205.19
2023-04-04T02:18:43.495Z,98190.19
2023-04-04T02:21:11.039Z,98192.75
2023-04-04T02:23:39.221Z,98199.16
2023-04-04T02:26:06.767Z,98197.66
2023-04-04T02:28:34.842Z,98190.38
2023-04-04T02:31:03.708Z,98185.38
2023-04-04T02:33:31.914Z,98187.66
2023-04-04T02:36:02.946Z,98195.44
2023-04-04T02:38:30.890Z,98184.47
2023-04-04T02:40:59.698Z,98185.19
2023-04-04T02:43:27.220Z,98185.88
2023-04-04T02:45:54.837Z,98187.91
2023-04-04T02:48:26.165Z,98184.78
2023-04-04T02:50:57.149Z,98182.94
2023-04-04T02:53:24.707Z,98185.56
2023-04-04T02:55:55.585Z,98186.41
2023-04-04T02:58:23.032Z,98183.44
2023-04-04T03:00:57.235Z,98183.88
2023-04-04T03:03:29.459Z,98188.09
2023-04-04T03:05:58.340Z,98185.91
2023-04-04T03:08:26.266Z,98187.19
2023-04-04T03:11:00.359Z,98180.03
2023-04-04T03:13:28.189Z,98183.34
2023-04-04T03:16:06.384Z,98179.22
2023-04-04T03:18:48.352Z,98184.31
2023-04-04T03:21:21.287Z,98175.09
2023-04-04T03:23:49.009Z,98170.75
2023-04-04T03:26:16.451Z,98183.94
2023-04-04T03:28:44.219Z,98176.50
2023-04-04T03:31:13.088Z,98176.59
2023-04-04T03:33:43.068Z,98174.63
2023-04-04T03:36:14.904Z,98168.66
2023-04-04T03:38:42.471Z,98174.31
2023-04-04T03:41:14.121Z,98182.41
2023-04-04T03:43:42.292Z,98185.13
2023-04-04T03:46:09.920Z,98186.38
2023-04-04T03:48:37.514Z,98189.53
2023-04-04T03:51:08.167Z,98185.47
2023-04-04T03:53:36.640Z,98191.13
2023-04-04T03:56:04.635Z,98183.28
2023-04-04T03:58:32.148Z,98184.81
2023-04-04T04:00:59.669Z,98183.72
2023-04-04T04:03:30.739Z,98196.06
2023-04-04T04:05:59.184Z,98197.97
2023-04-04T04:08:27.936Z,98207.06
2023-04-04T04:10:55.726Z,98206.59
2023-04-04T04:13:23.353Z,98206.03
2023-04-04T04:15:51.533Z,98211.38
2023-04-04T04:18:22.372Z,98214.91
2023-04-04T04:20:51.899Z,98201.63
2023-04-04T04:23:21.959Z,98204.53
2023-04-04T04:25:51.248Z,98204.53
2023-04-04T04:28:21.501Z,98210.09
2023-04-04T04:30:49.389Z,98211.69
2023-04-04T04:33:20.620Z,98212.31
2023-04-04T04:36:05.788Z,98209.00
2023-04-04T04:38:44.674Z,98214.66
2023-04-04T04:41:13.199Z,98213.81
2023-04-04T04:43:45.386Z,98208.19
2023-04-04T04:46:13.275Z,98206.44
2023-04-04T04:48:40.908Z,98210.56
2023-04-04T04:51:10.542Z,98212.44
2023-04-04T04:53:43.384Z,98209.44
2023-04-04T04:56:11.691Z,98211.41
2023-04-04T04:58:42.466Z,98220.34
2023-04-04T05:01:11.938Z,98214.56
2023-04-04T05:03:40.948Z,98219.66
2023-04-04T05:06:13.088Z,98213.22
2023-04-04T05:08:40.883Z,98216.81
2023-04-04T05:11:43.338Z,98212.31
2023-04-04T05:14:12.681Z,98213.81
2023-04-04T05:16:49.080Z,98215.81
2023-04-04T05:19:17.966Z,98215.78
2023-04-04T05:21:49.873Z,98214.03
2023-04-04T05:24:28.674Z,98217.31
2023-04-04T05:27:01.408Z,98222.16
2023-04-04T05:29:34.491Z,98225.81
2023-04-04T05:32:03.732Z,98225.38
2023-04-04T05:34:31.799Z,98225.72
2023-04-04T05:37:00.374Z,98230.50
2023-04-04T05:39:28.828Z,98221.50
2023-04-04T05:42:07.108Z,98224.66
2023-04-04T05:44:38.897Z,98216.38
2023-04-04T05:47:07.893Z,98226.13
2023-04-04T05:49:36.908Z,98224.38
2023-04-04T05:52:04.604Z,98224.41
2023-04-04T05:54:32.350Z,98228.91
2023-04-04T05:57:03.257Z,98236.94
2023-04-04T05:59:46.033Z,98242.50
2023-04-04T06:02:17.432Z,98241.00
2023-04-04T06:04:50.673Z,98247.66
2023-04-04T06:07:24.358Z,98243.44
2023-04-04T06:09:51.860Z,98242.34
2023-04-04T06:12:23.072Z,98250.44
2023-04-04T06:14:51.114Z,98255.91
2023-04-04T06:17:21.681Z,98254.22
2023-04-04T06:19:49.943Z,98248.16
2023-04-04T06:22:17.946Z,98255.00
2023-04-04T06:24:49.484Z,98254.16
2023-04-04T06:27:18.568Z,98257.06
2023-04-04T06:29:47.918Z,98258.88
2023-04-04T06:32:21.736Z,98254.09
2023-04-04T06:35:10.974Z,98262.66
2023-04-04T06:37:45.394Z,98274.91
2023-04-04T06:40:17.502Z,98271.31
2023-04-04T06:42:54.006Z,98269.78
2023-04-04T06:45:28.483Z,98267.78
2023-04-04T06:47:57.114Z,98270.81
2023-04-04T06:50:24.643Z,98268.69
2023-04-04T06:52:52.853Z,98259.34
2023-04-04T06:55:20.600Z,98260.50
2023-04-04T06:57:48.160Z,98265.63
2023-04-04T07:00:16.749Z,98260.66
2023-04-04T07:02:45.787Z,98257.91
2023-04-04T07:05:15.454Z,98260.94
2023-04-04T07:07:42.888Z,98256.91
2023-04-04T07:10:10.683Z,98252.59
2023-04-04T07:12:38.129Z,98256.06
2023-04-04T07:15:06.863Z,98252.25
2023-04-04T07:17:39.175Z,98258.97
2023-04-04T07:20:08.534Z,98259.91
2023-04-04T07:22:40.571Z,98265.47
2023-04-04T07:25:09.750Z,98259.41
2023-04-04T07:27:37.681Z,98275.34
2023-04-04T07:30:06.701Z,98265.63
2023-04-04T07:32:34.302Z,98280.19
2023-04-04T07:35:02.118Z,98274.66
2023-04-04T07:37:29.599Z,98278.69
2023-04-04T07:39:57.089Z,98272.81
2023-04-04T07:42:25.198Z,98273.47
2023-04-04T07:44:53.305Z,98281.19
2023-04-04T07:47:21.446Z,98286.66
2023-04-04T07:49:49.059Z,98273.06
2023-04-04T07:52:16.492Z,98282.31
2023-04-04T07:54:44.690Z,98281.47
2023-04-04T07:57:12.157Z,98282.63
2023-04-04T07:59:39.610Z,98287.75
2023-04-04T08:02:07.389Z,98276.75
2023-04-04T08:04:34.918Z,98284.53
2023-04-04T08:07:02.404Z,98281.16
2023-04-04T08:09:34.327Z,98274.97
2023-04-04T08:12:02.294Z,98272.91
2023-04-04T08:14:30.433Z,98264.78
2023-04-04T08:16:57.880Z,98272.81
2023-04-04T08:19:25.400Z,98275.94
2023-04-04T08:21:52.887Z,98276.63
2023-04-04T08:24:22.417Z,98272.44
2023-04-04T08:27:01.754Z,98291.31
2023-04-04T08:29:33.028Z,98293.94
2023-04-04T08:32:04.082Z,98284.47
2023-04-04T08:34:32.117Z,98290.75
2023-04-04T08:37:00.070Z,98294.88
2023-04-04T08:39:27.704Z,98307.53
2023-04-04T08:42:05.532Z,98295.03
2023-04-04T08:44:35.634Z,98298.13
2023-04-04T08:47:09.478Z,98308.63
2023-04-04T08:49:41.467Z,98306.44
2023-04-04T08:52:13.538Z,98308.22
2023-04-04T08:54:41.365Z,98308.94
2023-04-04T08:57:08.824Z,98313.56
2023-04-04T08:59:36.787Z,98302.47
2023-04-04T09:02:10.893Z,98307.81
2023-04-04T09:04:40.918Z,98300.44
2023-04-04T09:07:11.169Z,98308.41
2023-04-04T09:09:38.952Z,98303.47
2023-04-04T09:12:08.397Z,98312.16
2023-04-04T09:14:40.278Z,98313.25
2023-04-04T09:17:10.472Z,98311.38
2023-04-04T09:19:38.739Z,98311.31
2023-04-04T09:22:10.538Z,98315.88
2023-04-04T09:24:44.542Z,98311.53
2023-04-04T09:27:13.106Z,98314.69
2023-04-04T09:29:44.472Z,98324.75
2023-04-04T09:32:16.580Z,98324.53
2023-04-04T09:34:45.354Z,98319.66
2023-04-04T09:37:16.592Z,98322.97
2023-04-04T09:39:44.429Z,98323.91
2023-04-04T09:42:12.650Z,98322.09
2023-04-04T09:44:40.206Z,98321.03
2023-04-04T09:50:02.157Z,98325.69
2023-04-04T09:52:36.205Z,98324.53
2023-04-04T09:55:06.693Z,98330.94
2023-04-04T09:57:37.931Z,98326.53
2023-04-04T10:00:09.357Z,98331.13
2023-04-04T10:02:48.741Z,98329.22
2023-04-04T10:05:18.071Z,98328.72
2023-04-04T10:07:47.356Z,98326.59
2023-04-04T10:10:15.767Z,98329.28
2023-04-04T10:12:47.838Z,98324.75
2023-04-04T10:15:17.574Z,98319.84
2023-04-04T10:17:47.476Z,98317.19
2023-04-04T10:20:16.005Z,98318.31
2023-04-04T10:22:45.228Z,98316.44
2023-04-04T10:25:13.115Z,98311.88
2023-04-04T10:27:40.624Z,98316.03
2023-04-04T10:30:09.818Z,98309.56
2023-04-04T10:32:45.222Z,98305.41
2023-04-04T10:35:13.684Z,98306.19
2023-04-04T10:37:58.823Z,98303.19
2023-04-04T10:40:34.726Z,98300.13
2023-04-04T10:43:06.820Z,98298.94
2023-04-04T10:45:38.884Z,98295.84
2023-04-04T10:48:10.389Z,98296.97
2023-04-04T10:50:39.386Z,98304.22
2023-04-04T10:53:08.417Z,98313.56
2023-04-04T10:55:39.017Z,98301.69
2023-04-04T10:58:08.423Z,98296.75
2023-04-04T11:00:55.137Z,98290.56
2023-04-04T11:03:23.023Z,98292.31
2023-04-04T11:06:00.497Z,98294.34
2023-04-04T11:08:30.533Z,98283.13
2023-04-04T11:10:58.092Z,98283.22
2023-04-04T11:13:35.869Z,98285.56
2023-04-04T11:16:09.908Z,98292.72
2023-04-04T11:18:43.048Z,98285.59
2023-04-04T11:21:18.565Z,98281.91
2023-04-04T11:23:49.124Z,98285.34
2023-04-04T11:26:28.810Z,98294.84
2023-04-04T11:29:00.807Z,98293.31
2023-04-04T11:31:55.525Z,98286.09
2023-04-04T11:34:34.188Z,98284.19
2023-04-04T11:37:18.089Z,98287.63
2023-04-04T11:39:59.099Z,98277.75
2023-04-04T11:42:35.059Z,98265.13
2023-04-04T11:45:07.856Z,98264.97
2023-04-04T11:47:36.397Z,98269.72
2023-04-04T11:50:10.912Z,98269.78
2023-04-04T11:52:38.454Z,98277.72
2023-04-04T11:55:20.045Z,98273.00
2023-04-04T11:57:49.264Z,98273.88
2023-04-04T12:00:35.996Z,98272.41
2023-04-04T12:03:11.536Z,98269.75
2023-04-04T12:05:43.394Z,98265.94
2023-04-04T12:08:12.842Z,98272.91
2023-04-04T12:10:41.859Z,98255.69
2023-04-04T12:13:10.753Z,98262.22
2023-04-04T12:15:38.787Z,98262.00
2023-04-04T12:18:11.360Z,98256.78
2023-04-04T12:20:41.639Z,98257.63
2023-04-04T12:23:10.541Z,98254.28
2023-04-04T12:25:40.388Z,98251.06
2023-04-04T12:28:08.777Z,98250.97
2023-04-04T12:30:36.787Z,98244.91
2023-04-04T12:33:05.519Z,98246.91
2023-04-04T12:35:33.254Z,98253.28
2023-04-04T12:38:10.824Z,98246.53
2023-04-04T12:40:40.333Z,98250.59
2023-04-04T12:43:09.477Z,98254.13
2023-04-04T12:45:41.382Z,98248.72
2023-04-04T12:48:18.092Z,98250.16
2023-04-04T12:51:00.679Z,98249.78
2023-04-04T12:53:32.682Z,98242.31
2023-04-04T12:56:05.326Z,98242.19
2023-04-04T12:58:35.949Z,98239.88
2023-04-04T13:01:04.972Z,98243.25
2023-04-04T13:03:35.201Z,98244.06
2023-04-04T13:06:06.032Z,98242.97
2023-04-04T13:08:34.166Z,98254.34
2023-04-04T13:11:05.568Z,98259.25
2023-04-04T13:13:43.648Z,98262.28
2023-04-04T13:16:33.465Z,98261.19
2023-04-04T13:19:01.460Z,98270.63
2023-04-04T13:21:29.560Z,98263.81
2023-04-04T13:24:03.993Z,98271.78
2023-04-04T13:26:32.560Z,98271.41
2023-04-04T13:29:03.960Z,98280.03
2023-04-04T13:31:32.356Z,98285.72
2023-04-04T13:34:00.609Z,98284.56
2023-04-04T13:36:28.618Z,98284.00
2023-04-04T13:38:56.059Z,98282.44
2023-04-04T13:41:23.644Z,98279.69
2023-04-04T13:43:52.926Z,98281.00
2023-04-04T13:46:21.014Z,98281.94
2023-04-04T13:48:48.601Z,98282.22
2023-04-04T13:51:23.380Z,98293.09
2023-04-04T13:53:51.313Z,98293.75
2023-04-04T13:56:19.304Z,98292.06
2023-04-04T13:58:50.926Z,98304.88
2023-04-04T14:01:18.697Z,98295.50
2023-04-04T14:03:47.379Z,98299.25
2023-04-04T14:06:14.966Z,98299.81
2023-04-04T14:08:42.532Z,98296.84
2023-04-04T14:11:10.030Z,98292.94
2023-04-04T14:13:37.749Z,98313.28
2023-04-04T14:16:06.779Z,98312.56
2023-04-04T14:18:37.249Z,98321.47
2023-04-04T14:21:06.407Z,98324.19
2023-04-04T14:23:33.926Z,98322.25
2023-04-04T14:26:01.468Z,98335.19
2023-04-04T14:28:29.316Z,98331.28
2023-04-04T14:30:56.835Z,98332.03
2023-04-04T14:33:24.409Z,98336.88
2023-04-04T14:35:51.906Z,98336.09
2023-04-04T14:38:20.150Z,98355.16
2023-04-04T14:40:49.068Z,98350.53
2023-04-04T14:43:20.473Z,98366.00
2023-04-04T14:45:48.011Z,98378.28
2023-04-04T14:48:16.889Z,98373.53
2023-04-04T14:50:45.959Z,98383.56
2023-04-04T14:53:13.740Z,98388.13
2023-04-04T14:55:42.754Z,98393.38
2023-04-04T14:58:11.386Z,98385.91
2023-04-04T15:00:39.587Z,98401.91
2023-04-04T15:03:08.471Z,98405.56
2023-04-04T15:05:36.634Z,98406.97
2023-04-04T15:08:04.249Z,98421.50
2023-04-04T15:10:31.715Z,98432.69
2023-04-04T15:12:59.279Z,98434.09
2023-04-04T15:15:29.009Z,98442.59
2023-04-04T15:17:56.585Z,98438.78
2023-04-04T15:20:24.005Z,98433.25
2023-04-04T15:22:51.511Z,98433.25
2023-04-04T15:25:18.995Z,98449.25
2023-04-04T15:27:46.654Z,98446.38
2023-04-04T15:30:14.960Z,98465.69
2023-04-04T15:32:42.537Z,98449.56
2023-04-04T15:35:19.297Z,98458.56
2023-04-04T15:37:49.781Z,98459.31
2023-04-04T15:40:18.683Z,98460.56
2023-04-04T15:42:47.653Z,98463.88
2023-04-04T15:45:16.648Z,98473.50
2023-04-04T15:47:45.256Z,98474.88
2023-04-04T15:50:13.375Z,98474.91
2023-04-04T15:52:41.842Z,98472.19
2023-04-04T15:55:17.176Z,98489.72
2023-04-04T15:57:45.689Z,98489.00
2023-04-04T16:00:17.183Z,98484.16
2023-04-04T16:02:46.717Z,98490.69
2023-04-04T16:05:14.409Z,98499.72
2023-04-04T16:07:44.578Z,98495.19
2023-04-04T16:10:12.183Z,98499.03
2023-04-04T16:12:42.689Z,98494.81
2023-04-04T16:15:14.730Z,98488.09
2023-04-04T16:17:42.790Z,98497.22
2023-04-04T16:20:11.409Z,98496.84
2023-04-04T16:22:39.041Z,98496.91
2023-04-04T16:25:09.020Z,98498.06
2023-04-04T16:27:36.966Z,98510.72
2023-04-04T16:30:05.145Z,98495.97
2023-04-04T16:32:34.415Z,98509.59
2023-04-04T16:35:02.105Z,98502.34
2023-04-04T16:37:30.861Z,98500.94
2023-04-04T16:40:07.354Z,98500.84
2023-04-04T16:42:36.679Z,98500.63
2023-04-04T16:45:08.603Z,98506.06
2023-04-04T16:47:38.317Z,98506.06
2023-04-04T16:50:07.970Z,98516.97
2023-04-04T16:52:37.299Z,98511.44
2023-04-04T16:55:06.172Z,98513.03
2023-04-04T16:57:35.158Z,98515.53
2023-04-04T17:00:06.272Z,98521.09
2023-04-04T17:02:33.796Z,98528.28
2023-04-04T17:05:04.007Z,98547.91
2023-04-04T17:07:33.354Z,98541.13
2023-04-04T17:10:13.842Z,98549.13
2023-04-04T17:12:42.532Z,98548.66
2023-04-04T17:15:14.103Z,98554.97
2023-04-04T17:17:44.754Z,98558.81
2023-04-04T17:20:18.420Z,98567.41
2023-04-04T17:22:49.493Z,98562.16
2023-04-04T17:25:19.068Z,98553.88
2023-04-04T17:27:48.160Z,98568.31
2023-04-04T17:30:17.733Z,98568.34
2023-04-04T17:32:48.392Z,98569.22
2023-04-04T17:35:19.916Z,98575.34
2023-04-04T17:37:48.052Z,98562.94
2023-04-04T17:40:17.088Z,98579.47
2023-04-04T17:42:45.673Z,98579.66
2023-04-04T17:45:14.498Z,98588.56
2023-04-04T17:47:45.608Z,98600.34
2023-04-04T17:50:36.484Z,98600.19
2023-04-04T17:53:05.990Z,98609.25
2023-04-04T17:55:37.458Z,98617.25
2023-04-04T17:58:06.881Z,98627.22
2023-04-04T18:00:36.103Z,98640.25
2023-04-04T18:03:04.785Z,98637.19
2023-04-04T18:05:56.629Z,98642.44
2023-04-04T18:08:26.381Z,98644.81
2023-04-04T18:10:59.864Z,98648.66
2023-04-04T18:13:29.386Z,98645.88
2023-04-04T18:16:00.886Z,98646.47
2023-04-04T18:18:34.316Z,98646.97
2023-04-04T18:21:04.945Z,98654.00
2023-04-04T18:23:34.543Z,98654.47
2023-04-04T18:26:08.347Z,98659.38
2023-04-04T18:28:36.657Z,98669.59
2023-04-04T18:31:06.128Z,98651.28
2023-04-04T18:33:35.736Z,98660.59
2023-04-04T18:36:05.876Z,98668.09
2023-04-04T18:38:34.580Z,98671.94
2023-04-04T18:41:10.752Z,98673.28
2023-04-04T18:43:39.752Z,98674.34
2023-04-04T18:46:17.105Z,98677.38
2023-04-04T18:48:49.041Z,98684.44
2023-04-04T18:51:18.307Z,98680.38
2023-04-04T18:53:48.473Z,98690.03
2023-04-04T18:56:17.639Z,98685.78
2023-04-04T18:58:49.560Z,98685.91
2023-04-04T19:01:20.530Z,98699.38
2023-04-04T19:03:52.704Z,98696.13
2023-04-04T19:06:23.591Z,98709.81
2023-04-04T19:08:53.592Z,98699.50
2023-04-04T19:11:22.231Z,98698.66
2023-04-04T19:13:50.850Z,98703.44
2023-04-04T19:16:20.277Z,98716.03
2023-04-04T19:18:50.004Z,98710.72
2023-04-04T19:21:19.992Z,98724.53
2023-04-04T19:23:48.702Z,98719.56
2023-04-04T19:26:18.500Z,98721.75
2023-04-04T19:28:47.160Z,98727.16
2023-04-04T19:31:30.525Z,98721.63
2023-04-04T19:33:59.317Z,98720.59
2023-04-04T19:36:28.645Z,98721.28
2023-04-04T19:38:58.474Z,98721.69
2023-04-04T19:41:38.730Z,98715.19
2023-04-04T19:44:26.229Z,98724.09
2023-04-04T19:46:54.709Z,98730.66
2023-04-04T19:49:30.963Z,98721.78
2023-04-04T19:52:02.658Z,98728.47
2023-04-04T19:54:43.489Z,98729.25
2023-04-04T19:57:22.408Z,98728.25
2023-04-04T20:00:14.307Z,98725.94
2023-04-04T20:02:54.593Z,98731.81
2023-04-04T20:05:32.859Z,98724.41
2023-04-04T20:08:02.285Z,98727.47
2023-04-04T20:10:42.805Z,98728.84
2023-04-04T20:13:11.634Z,98738.59
2023-04-04T20:15:46.449Z,98740.44
2023-04-04T20:18:32.734Z,98742.09
2023-04-04T20:21:27.967Z,98737.25
2023-04-04T20:23:59.333Z,98755.97
2023-04-04T20:26:41.433Z,98750.88
2023-04-04T20:29:15.677Z,98756.59
2023-04-04T20:31:47.831Z,98754.94
2023-04-04T20:34:46.588Z,98762.28
2023-04-04T20:37:26.986Z,98756.31
2023-04-04T20:40:03.925Z,98761.66
2023-04-04T20:42:32.288Z,98763.97
2023-04-04T20:45:27.507Z,98764.81
2023-04-04T20:48:07.297Z,98762.19
2023-04-04T20:50:35.721Z,98764.94
2023-04-04T20:53:07.284Z,98760.28
2023-04-04T20:55:36.920Z,98761.72
2023-04-04T20:58:31.479Z,98765.69
2023-04-04T21:01:02.043Z,98770.00
2023-04-04T21:03:36.782Z,98767.97
2023-04-04T21:06:14.839Z,98773.94
2023-04-04T21:08:49.671Z,98776.56
2023-04-04T21:11:31.005Z,98773.00
2023-04-04T21:13:58.850Z,98778.84
2023-04-04T21:16:28.732Z,98782.63
2023-04-04T21:19:02.078Z,98786.25
2023-04-04T21:21:33.019Z,98775.25
2023-04-04T21:24:01.995Z,98784.75
2023-04-04T21:26:38.761Z,98784.78
2023-04-04T21:29:24.752Z,98793.59
2023-04-04T21:31:56.122Z,98795.25
2023-04-04T21:34:28.992Z,98794.56
2023-04-04T21:37:02.184Z,98794.38
2023-04-04T21:39:31.589Z,98803.16
2023-04-04T21:42:07.941Z,98806.63
2023-04-04T21:44:36.886Z,98809.97
2023-04-04T21:47:04.856Z,98808.56
2023-04-04T21:49:32.386Z,98814.94
2023-04-04T21:52:00.234Z,98815.28
2023-04-04T21:54:27.895Z,98812.31
2023-04-04T21:56:55.291Z,98821.06
2023-04-04T21:59:22.713Z,98816.09
2023-04-04T22:01:51.318Z,98815.47
2023-04-04T22:04:19.007Z,98820.19
2023-04-04T22:06:46.680Z,98819.75
2023-04-04T22:09:15.991Z,98825.13
2023-04-04T22:11:44.486Z,98831.16
2023-04-04T22:14:17.480Z,98830.50
2023-04-04T22:16:45.833Z,98826.88
2023-04-04T22:19:13.492Z,98826.13
2023-04-04T22:21:48.237Z,98836.59
2023-04-04T22:24:18.279Z,98836.97
2023-04-04T22:26:50.455Z,98828.13
2023-04-04T22:29:18.021Z,98835.31
2023-04-04T22:31:45.758Z,98832.06
2023-04-04T22:34:15.006Z,98833.59
2023-04-04T22:36:43.953Z,98840.81
2023-04-04T22:39:12.088Z,98833.81
2023-04-04T22:41:39.619Z,98847.38
2023-04-04T22:44:07.040Z,98839.59
2023-04-04T22:46:35.462Z,98832.53
2023-04-04T22:49:06.943Z,98842.94
2023-04-04T22:51:44.756Z,98835.91
2023-04-04T22:54:17.173Z,98841.50
2023-04-04T22:56:45.063Z,98847.22
2023-04-04T22:59:13.177Z,98853.00
2023-04-04T23:01:43.725Z,98852.78
2023-04-04T23:04:11.601Z,98852.00
2023-04-04T23:06:39.130Z,98845.53
2023-04-04T23:09:08.049Z,98852.78
2023-04-04T23:11:36.048Z,98849.41
2023-04-04T23:14:08.848Z,98854.16
2023-04-04T23:16:37.367Z,98856.09
2023-04-04T23:19:05.012Z,98858.09
2023-04-04T23:21:32.939Z,98858.75
2023-04-04T23:24:00.515Z,98866.38
2023-04-04T23:26:27.974Z,98863.88
2023-04-04T23:28:57.153Z,98864.50
2023-04-04T23:31:25.997Z,98863.84
2023-04-04T23:33:53.871Z,98858.66
2023-04-04T23:36:21.621Z,98865.22
2023-04-04T23:38:49.121Z,98859.34
2023-04-04T23:41:18.238Z,98863.59
2023-04-04T23:43:46.045Z,98873.91
2023-04-04T23:46:14.434Z,98864.25
2023-04-04T23:48:42.244Z,98865.91
2023-04-04T23:51:11.102Z,98866.19
2023-04-04T23:53:39.245Z,98874.38
2023-04-04T23:56:07.140Z,98872.66
2023-04-04T23:58:34.929Z,98872.34
